Aviation Digital Data Service (ADDS)

Output produced by METARs form (0437 UTC 10 February 2016)
found at http://aviationweather.gov/adds/metars/
 
KCAR 100212Z 1002/1024 03007KT 4SM -SN SCT025 OVC040 
     TEMPO 1002/1004 2SM -SN OVC025 
     FM100400 36006KT 4SM BR OVC025 
     FM100900 VRB03KT 4SM BR BKN030 
     FM101400 24004KT P6SM BKN030